createdAt,value
2018-09-01T00:02:57.867Z,15.21
2018-09-01T00:08:00.923Z,15.09
2018-09-01T00:13:03.991Z,14.95
2018-09-01T00:18:07.780Z,14.93
2018-09-01T00:23:10.876Z,14.99
2018-09-01T00:28:13.919Z,15.08
2018-09-01T00:33:16.958Z,15.13
2018-09-01T00:38:25.792Z,15.17
2018-09-01T00:43:28.834Z,15.12
2018-09-01T00:48:31.845Z,15.05
2018-09-01T00:53:34.949Z,14.93
2018-09-01T00:58:37.957Z,14.87
2018-09-01T01:03:41.816Z,14.77
2018-09-01T01:08:45.629Z,14.69
2018-09-01T01:13:49.228Z,14.63
2018-09-01T01:18:52.925Z,14.53
2018-09-01T01:23:56.655Z,14.39
2018-09-01T01:28:59.708Z,14.31
2018-09-01T01:34:02.767Z,14.12
2018-09-01T01:39:06.752Z,14.05
2018-09-01T01:44:09.864Z,14.06
2018-09-01T01:49:12.893Z,13.99
2018-09-01T01:54:15.985Z,13.98
2018-09-01T01:59:18.996Z,14.01
2018-09-01T02:04:21.990Z,13.96
2018-09-01T02:09:25.018Z,13.90
2018-09-01T02:14:28.045Z,13.84
2018-09-01T02:19:31.166Z,13.77
2018-09-01T02:24:34.247Z,13.70
2018-09-01T02:29:38.167Z,13.63
2018-09-01T02:34:41.191Z,13.57
2018-09-01T02:39:44.373Z,13.54
2018-09-01T02:44:47.447Z,13.47
2018-09-01T02:49:50.599Z,13.48
2018-09-01T02:54:53.666Z,13.42
2018-09-01T02:59:56.717Z,13.41
2018-09-01T03:04:59.801Z,13.31
2018-09-01T03:10:03.258Z,13.23
2018-09-01T03:15:06.953Z,13.31
2018-09-01T03:20:10.011Z,13.27
2018-09-01T03:25:13.053Z,13.24
2018-09-01T03:30:16.110Z,13.28
2018-09-01T03:35:19.290Z,13.27
2018-09-01T03:40:22.337Z,13.15
2018-09-01T03:45:25.401Z,13.14
2018-09-01T03:50:28.484Z,13.22
2018-09-01T03:55:31.531Z,13.21
2018-09-01T04:00:34.766Z,13.24
2018-09-01T04:05:37.842Z,13.27
2018-09-01T04:10:40.916Z,13.23
2018-09-01T04:15:43.941Z,13.11
2018-09-01T04:20:46.981Z,13.06
2018-09-01T04:25:50.026Z,12.99
2018-09-01T04:30:55.573Z,12.94
2018-09-01T04:36:01.675Z,12.89
2018-09-01T04:41:04.909Z,12.92
2018-09-01T04:46:07.937Z,12.92
2018-09-01T04:51:10.966Z,12.96
2018-09-01T04:56:14.264Z,12.99
2018-09-01T05:01:17.469Z,13.02
2018-09-01T05:06:20.512Z,13.08
2018-09-01T05:11:23.633Z,13.13
2018-09-01T05:16:26.829Z,13.20
2018-09-01T05:21:31.311Z,13.32
2018-09-01T05:26:34.536Z,13.54
2018-09-01T05:31:37.576Z,13.91
2018-09-01T05:36:40.893Z,14.28
2018-09-01T05:41:44.045Z,14.50
2018-09-01T05:46:47.218Z,14.62
2018-09-01T05:51:50.578Z,14.89
2018-09-01T05:56:54.245Z,15.22
2018-09-01T06:01:57.308Z,15.61
2018-09-01T06:07:00.513Z,15.95
2018-09-01T06:12:03.747Z,16.13
2018-09-01T06:17:06.778Z,16.19
2018-09-01T06:22:09.870Z,16.18
2018-09-01T06:27:19.277Z,16.24
2018-09-01T06:32:24.039Z,16.58
2018-09-01T06:37:28.560Z,16.91
2018-09-01T06:42:31.829Z,16.97
2018-09-01T06:47:34.997Z,17.09
2018-09-01T06:52:38.157Z,17.20
2018-09-01T06:57:41.231Z,17.27
2018-09-01T07:02:44.296Z,17.36
2018-09-01T07:07:47.663Z,17.47
2018-09-01T07:12:50.826Z,17.66
2018-09-01T07:17:53.935Z,17.88
2018-09-01T07:22:58.589Z,18.12
2018-09-01T07:28:01.686Z,18.49
2018-09-01T07:33:04.833Z,18.75
2018-09-01T07:38:08.610Z,19.09
2018-09-01T07:43:11.714Z,19.14
2018-09-01T07:48:14.833Z,19.07
2018-09-01T07:53:18.129Z,19.18
2018-09-01T07:58:21.452Z,19.25
2018-09-01T08:03:24.601Z,19.34
2018-09-01T08:08:27.673Z,19.43
2018-09-01T08:13:30.724Z,19.78
2018-09-01T08:18:33.809Z,20.11
2018-09-01T08:23:36.843Z,20.22
2018-09-01T08:28:39.921Z,20.42
2018-09-01T08:33:43.056Z,20.88
2018-09-01T08:38:46.060Z,20.51
2018-09-01T08:43:49.458Z,20.38
2018-09-01T08:48:52.569Z,20.41
2018-09-01T08:53:55.646Z,20.54
2018-09-01T08:58:58.698Z,20.86
2018-09-01T09:04:01.760Z,21.19
2018-09-01T09:09:06.241Z,21.45
2018-09-01T09:14:09.338Z,21.43
2018-09-01T09:19:12.459Z,21.44
2018-09-01T09:24:15.532Z,22.18
2018-09-01T09:29:18.719Z,22.60
2018-09-01T09:34:21.791Z,22.12
2018-09-01T09:39:24.884Z,22.06
2018-09-01T09:44:28.035Z,22.89
2018-09-01T09:49:31.217Z,22.51
2018-09-01T09:54:34.431Z,21.94
2018-09-01T09:59:38.201Z,21.83
2018-09-01T10:04:41.242Z,21.61
2018-09-01T10:09:44.333Z,21.59
2018-09-01T10:14:47.359Z,21.69
2018-09-01T10:19:51.295Z,21.72
2018-09-01T10:24:56.034Z,21.76
2018-09-01T10:30:00.423Z,22.04
2018-09-01T10:35:03.616Z,22.37
2018-09-01T10:40:06.706Z,22.84
2018-09-01T10:45:09.840Z,22.79
2018-09-01T10:50:12.891Z,22.44
2018-09-01T10:55:15.981Z,22.22
2018-09-01T11:00:20.044Z,22.71
2018-09-01T11:05:23.842Z,23.10
2018-09-01T11:10:27.712Z,23.15
2018-09-01T11:15:31.428Z,23.45
2018-09-01T11:20:35.563Z,23.79
2018-09-01T11:25:39.199Z,24.02
2018-09-01T11:30:42.952Z,24.74
2018-09-01T11:35:46.080Z,24.59
2018-09-01T11:40:49.116Z,24.54
2018-09-01T11:45:52.155Z,24.36
2018-09-01T11:50:55.242Z,24.56
2018-09-01T11:55:58.448Z,24.78
2018-09-01T12:01:01.505Z,24.54
2018-09-01T12:06:04.630Z,24.40
2018-09-01T12:11:07.807Z,23.91
2018-09-01T12:16:10.929Z,23.83
2018-09-01T12:21:14.241Z,23.90
2018-09-01T12:26:17.306Z,24.58
2018-09-01T12:31:20.346Z,24.93
2018-09-01T12:36:24.292Z,25.11
2018-09-01T12:41:27.399Z,25.25
2018-09-01T12:46:30.494Z,25.56
2018-09-01T12:51:33.550Z,26.13
2018-09-01T12:56:36.674Z,26.08
2018-09-01T13:01:39.720Z,26.04
2018-09-01T13:06:42.952Z,25.50
2018-09-01T13:11:46.042Z,25.24
2018-09-01T13:16:49.114Z,25.09
2018-09-01T13:21:52.188Z,24.99
2018-09-01T13:26:55.246Z,24.76
2018-09-01T13:31:58.338Z,24.56
2018-09-01T13:37:01.408Z,24.37
2018-09-01T13:42:04.598Z,24.30
2018-09-01T13:47:07.691Z,24.13
2018-09-01T13:52:10.748Z,24.50
2018-09-01T13:57:13.853Z,24.70
2018-09-01T14:02:16.951Z,24.81
2018-09-01T14:07:20.086Z,25.36
2018-09-01T14:12:23.178Z,25.36
2018-09-01T14:17:26.389Z,25.69
2018-09-01T14:22:29.422Z,26.03
2018-09-01T14:27:32.461Z,26.60
2018-09-01T14:32:35.529Z,27.01
2018-09-01T14:37:38.818Z,27.23
2018-09-01T14:42:41.862Z,27.11
2018-09-01T14:47:44.899Z,26.72
2018-09-01T14:52:47.979Z,26.04
2018-09-01T14:57:51.015Z,25.33
2018-09-01T15:02:54.062Z,24.75
2018-09-01T15:07:57.178Z,24.39
2018-09-01T15:13:00.330Z,24.33
2018-09-01T15:18:03.400Z,24.44
2018-09-01T15:23:06.462Z,25.18
2018-09-01T15:28:09.610Z,25.95
2018-09-01T15:33:12.638Z,26.00
2018-09-01T15:38:15.723Z,25.86
2018-09-01T15:43:19.648Z,26.04
2018-09-01T15:48:22.684Z,26.16
2018-09-01T15:53:25.792Z,26.09
2018-09-01T15:58:28.867Z,25.74
2018-09-01T16:03:32.006Z,25.72
2018-09-01T16:08:35.095Z,25.54
2018-09-01T16:13:38.166Z,25.20
2018-09-01T16:18:41.232Z,25.54
2018-09-01T16:23:44.305Z,25.83
2018-09-01T16:28:47.508Z,25.77
2018-09-01T16:33:50.636Z,25.75
2018-09-01T16:38:53.701Z,25.73
2018-09-01T16:43:56.854Z,25.23
2018-09-01T16:48:59.909Z,24.93
2018-09-01T16:54:03.120Z,24.61
2018-09-01T16:59:06.232Z,24.32
2018-09-01T17:04:09.273Z,24.13
2018-09-01T17:09:12.402Z,24.10
2018-09-01T17:14:15.506Z,23.95
2018-09-01T17:19:21.842Z,23.74
2018-09-01T17:24:25.072Z,23.61
2018-09-01T17:29:29.632Z,23.60
2018-09-01T17:34:32.770Z,23.48
2018-09-01T17:39:35.895Z,23.44
2018-09-01T17:44:39.042Z,23.44
2018-09-01T17:49:43.282Z,23.41
2018-09-01T17:54:46.415Z,23.44
2018-09-01T17:59:49.490Z,23.37
2018-09-01T18:04:52.566Z,23.33
2018-09-01T18:09:55.585Z,23.30
2018-09-01T18:14:58.705Z,23.23
2018-09-01T18:20:01.751Z,23.24
2018-09-01T18:25:04.842Z,23.18
2018-09-01T18:30:08.473Z,23.17
2018-09-01T18:35:11.687Z,23.15
2018-09-01T18:40:15.098Z,23.10
2018-09-01T18:50:26.562Z,23.03
2018-09-01T18:55:30.698Z,22.91
2018-09-01T19:00:35.964Z,22.81
2018-09-01T19:05:39.786Z,22.66
2018-09-01T19:10:43.238Z,22.61
2018-09-01T19:15:47.214Z,22.53
2018-09-01T19:20:50.442Z,22.43
2018-09-01T19:25:54.581Z,22.35
2018-09-01T19:30:58.505Z,22.15
2018-09-01T19:36:02.272Z,22.04
2018-09-01T19:41:05.931Z,21.93
2018-09-01T19:46:09.304Z,21.79
2018-09-01T19:51:13.183Z,21.70
2018-09-01T19:56:16.772Z,21.63
2018-09-01T20:01:20.893Z,21.55
2018-09-01T20:06:24.118Z,21.38
2018-09-01T20:11:27.648Z,21.16
2018-09-01T20:16:31.319Z,21.09
2018-09-01T20:21:35.345Z,20.90
2018-09-01T20:26:39.294Z,20.74
2018-09-01T20:31:43.009Z,20.73
2018-09-01T20:36:46.148Z,20.74
2018-09-01T20:41:49.162Z,20.71
2018-09-01T20:46:52.298Z,20.59
2018-09-01T20:51:55.350Z,20.53
2018-09-01T20:56:58.429Z,20.47
2018-09-01T21:02:02.585Z,20.28
2018-09-01T21:07:05.765Z,20.23
2018-09-01T21:12:08.819Z,20.06
2018-09-01T21:17:12.257Z,19.92
2018-09-01T21:22:15.281Z,19.75
2018-09-01T21:27:18.354Z,19.61
2018-09-01T21:32:21.427Z,19.49
2018-09-01T21:37:24.440Z,19.46
2018-09-01T21:42:27.469Z,19.48
2018-09-01T21:47:30.524Z,19.46
2018-09-01T21:52:33.575Z,19.42
2018-09-01T21:57:36.631Z,19.38
2018-09-01T22:02:39.710Z,19.31
2018-09-01T22:07:42.858Z,19.26
2018-09-01T22:12:45.987Z,19.17
2018-09-01T22:17:49.122Z,19.08
2018-09-01T22:22:52.211Z,19.01
2018-09-01T22:27:55.225Z,18.91
2018-09-01T22:32:58.368Z,18.82
2018-09-01T22:38:01.403Z,18.78
2018-09-01T22:43:04.521Z,18.69
2018-09-01T22:48:07.595Z,18.66
2018-09-01T22:53:10.711Z,18.65
2018-09-01T22:58:13.764Z,18.66
2018-09-01T23:03:16.806Z,18.64
2018-09-01T23:08:19.860Z,18.64
2018-09-01T23:13:22.927Z,18.66
2018-09-01T23:18:25.990Z,18.64
2018-09-01T23:23:29.033Z,18.68
2018-09-01T23:28:32.069Z,18.74
2018-09-01T23:33:35.154Z,18.79
2018-09-01T23:38:38.102Z,18.72
2018-09-01T23:43:41.140Z,18.63
2018-09-01T23:48:44.132Z,18.55
2018-09-01T23:53:47.177Z,18.55
2018-09-01T23:58:50.235Z,18.59
